sensor_id;sensor_type;location;lat;lon;timestamp;P1;durP1;ratioP1;P2;durP2;ratioP2
14688;SDS011;7432;48.728;9.154;2022-08-25T00:00:58;6.43;;;5.90;;
14688;SDS011;7432;48.728;9.154;2022-08-25T00:03:25;5.57;;;5.10;;
14688;SDS011;7432;48.728;9.154;2022-08-25T00:05:51;5.73;;;5.33;;
14688;SDS011;7432;48.728;9.154;2022-08-25T00:08:17;5.73;;;5.40;;
14688;SDS011;7432;48.728;9.154;2022-08-25T00:10:44;6.33;;;5.73;;
14688;SDS011;7432;48.728;9.154;2022-08-25T00:13:12;6.00;;;5.60;;
14688;SDS011;7432;48.728;9.154;2022-08-25T00:15:38;5.63;;;5.33;;
14688;SDS011;7432;48.728;9.154;2022-08-25T00:18:05;5.73;;;5.40;;
14688;SDS011;7432;48.728;9.154;2022-08-25T00:20:31;5.20;;;4.90;;
14688;SDS011;7432;48.728;9.154;2022-08-25T00:22:58;6.03;;;5.33;;
14688;SDS011;7432;48.728;9.154;2022-08-25T00:25:24;5.80;;;5.40;;
14688;SDS011;7432;48.728;9.154;2022-08-25T00:27:51;7.40;;;5.50;;
14688;SDS011;7432;48.728;9.154;2022-08-25T00:30:19;5.87;;;5.43;;
14688;SDS011;7432;48.728;9.154;2022-08-25T00:32:46;5.77;;;5.37;;
14688;SDS011;7432;48.728;9.154;2022-08-25T00:35:12;6.00;;;5.60;;
14688;SDS011;7432;48.728;9.154;2022-08-25T00:37:39;6.03;;;5.63;;
14688;SDS011;7432;48.728;9.154;2022-08-25T00:40:06;6.13;;;5.73;;
14688;SDS011;7432;48.728;9.154;2022-08-25T00:42:33;6.40;;;5.90;;
14688;SDS011;7432;48.728;9.154;2022-08-25T00:45:00;6.33;;;5.83;;
14688;SDS011;7432;48.728;9.154;2022-08-25T00:47:28;6.20;;;5.70;;
14688;SDS011;7432;48.728;9.154;2022-08-25T00:49:56;6.20;;;5.70;;
14688;SDS011;7432;48.728;9.154;2022-08-25T00:52:26;6.03;;;5.53;;
14688;SDS011;7432;48.728;9.154;2022-08-25T00:54:55;6.20;;;5.80;;
14688;SDS011;7432;48.728;9.154;2022-08-25T00:57:27;6.53;;;5.83;;
14688;SDS011;7432;48.728;9.154;2022-08-25T00:59:56;5.90;;;5.50;;
14688;SDS011;7432;48.728;9.154;2022-08-25T01:02:22;6.40;;;5.87;;
14688;SDS011;7432;48.728;9.154;2022-08-25T01:04:50;5.87;;;5.47;;
14688;SDS011;7432;48.728;9.154;2022-08-25T01:07:17;7.27;;;5.93;;
14688;SDS011;7432;48.728;9.154;2022-08-25T01:09:46;6.87;;;6.20;;
14688;SDS011;7432;48.728;9.154;2022-08-25T01:12:16;5.90;;;5.50;;
14688;SDS011;7432;48.728;9.154;2022-08-25T01:14:43;6.63;;;6.13;;
14688;SDS011;7432;48.728;9.154;2022-08-25T01:17:10;6.23;;;5.80;;
14688;SDS011;7432;48.728;9.154;2022-08-25T01:19:37;6.50;;;5.97;;
14688;SDS011;7432;48.728;9.154;2022-08-25T01:22:05;6.40;;;5.90;;
14688;SDS011;7432;48.728;9.154;2022-08-25T01:24:34;7.07;;;6.50;;
14688;SDS011;7432;48.728;9.154;2022-08-25T01:27:06;6.23;;;5.77;;
14688;SDS011;7432;48.728;9.154;2022-08-25T01:29:34;6.53;;;5.93;;
14688;SDS011;7432;48.728;9.154;2022-08-25T01:32:02;6.17;;;5.77;;
14688;SDS011;7432;48.728;9.154;2022-08-25T01:34:32;6.37;;;5.97;;
14688;SDS011;7432;48.728;9.154;2022-08-25T01:37:00;6.40;;;6.00;;
14688;SDS011;7432;48.728;9.154;2022-08-25T01:39:29;6.43;;;5.97;;
14688;SDS011;7432;48.728;9.154;2022-08-25T01:42:03;6.70;;;6.30;;
14688;SDS011;7432;48.728;9.154;2022-08-25T01:44:38;6.50;;;6.10;;
14688;SDS011;7432;48.728;9.154;2022-08-25T01:47:07;6.17;;;5.77;;
14688;SDS011;7432;48.728;9.154;2022-08-25T01:49:35;6.63;;;6.20;;
14688;SDS011;7432;48.728;9.154;2022-08-25T01:52:04;6.40;;;5.80;;
14688;SDS011;7432;48.728;9.154;2022-08-25T01:54:36;6.63;;;6.20;;
14688;SDS011;7432;48.728;9.154;2022-08-25T01:57:03;6.23;;;5.83;;
14688;SDS011;7432;48.728;9.154;2022-08-25T01:59:30;6.13;;;5.73;;
14688;SDS011;7432;48.728;9.154;2022-08-25T02:01:56;6.83;;;6.33;;
14688;SDS011;7432;48.728;9.154;2022-08-25T02:04:23;7.03;;;6.53;;
14688;SDS011;7432;48.728;9.154;2022-08-25T02:06:50;6.43;;;6.03;;
14688;SDS011;7432;48.728;9.154;2022-08-25T02:09:17;6.70;;;6.20;;
14688;SDS011;7432;48.728;9.154;2022-08-25T02:11:45;7.27;;;6.57;;
14688;SDS011;7432;48.728;9.154;2022-08-25T02:14:13;6.60;;;6.00;;
14688;SDS011;7432;48.728;9.154;2022-08-25T02:16:41;6.20;;;5.80;;
14688;SDS011;7432;48.728;9.154;2022-08-25T02:19:11;6.57;;;6.17;;
14688;SDS011;7432;48.728;9.154;2022-08-25T02:21:38;6.77;;;6.27;;
14688;SDS011;7432;48.728;9.154;2022-08-25T02:24:05;6.23;;;5.63;;
14688;SDS011;7432;48.728;9.154;2022-08-25T02:26:34;6.80;;;6.30;;
14688;SDS011;7432;48.728;9.154;2022-08-25T02:29:02;6.50;;;6.10;;
14688;SDS011;7432;48.728;9.154;2022-08-25T02:31:29;6.77;;;6.20;;
14688;SDS011;7432;48.728;9.154;2022-08-25T02:33:56;6.80;;;6.20;;
14688;SDS011;7432;48.728;9.154;2022-08-25T02:36:23;6.50;;;6.00;;
14688;SDS011;7432;48.728;9.154;2022-08-25T02:38:49;6.50;;;5.90;;
14688;SDS011;7432;48.728;9.154;2022-08-25T02:41:17;6.43;;;5.83;;
14688;SDS011;7432;48.728;9.154;2022-08-25T02:43:46;6.70;;;6.20;;
14688;SDS011;7432;48.728;9.154;2022-08-25T02:46:15;6.80;;;6.20;;
14688;SDS011;7432;48.728;9.154;2022-08-25T02:48:43;7.30;;;6.67;;
14688;SDS011;7432;48.728;9.154;2022-08-25T02:51:10;6.80;;;6.30;;
14688;SDS011;7432;48.728;9.154;2022-08-25T02:53:38;6.97;;;6.47;;
14688;SDS011;7432;48.728;9.154;2022-08-25T02:56:10;6.87;;;6.37;;
14688;SDS011;7432;48.728;9.154;2022-08-25T02:58:39;6.97;;;6.47;;
14688;SDS011;7432;48.728;9.154;2022-08-25T03:01:07;7.60;;;6.97;;
14688;SDS011;7432;48.728;9.154;2022-08-25T03:03:37;7.00;;;6.50;;
14688;SDS011;7432;48.728;9.154;2022-08-25T03:06:05;6.80;;;6.30;;
14688;SDS011;7432;48.728;9.154;2022-08-25T03:08:32;7.23;;;6.73;;
14688;SDS011;7432;48.728;9.154;2022-08-25T03:10:58;8.13;;;6.80;;
14688;SDS011;7432;48.728;9.154;2022-08-25T03:13:25;7.30;;;6.80;;
14688;SDS011;7432;48.728;9.154;2022-08-25T03:15:51;6.90;;;6.30;;
14688;SDS011;7432;48.728;9.154;2022-08-25T03:18:18;7.60;;;6.90;;
14688;SDS011;7432;48.728;9.154;2022-08-25T03:20:46;7.50;;;6.97;;
14688;SDS011;7432;48.728;9.154;2022-08-25T03:23:12;7.07;;;6.47;;
14688;SDS011;7432;48.728;9.154;2022-08-25T03:25:39;7.37;;;6.77;;
14688;SDS011;7432;48.728;9.154;2022-08-25T03:28:24;7.30;;;6.70;;
14688;SDS011;7432;48.728;9.154;2022-08-25T03:30:50;8.20;;;6.73;;
14688;SDS011;7432;48.728;9.154;2022-08-25T03:33:17;7.13;;;6.63;;
14688;SDS011;7432;48.728;9.154;2022-08-25T03:35:43;6.63;;;6.13;;
14688;SDS011;7432;48.728;9.154;2022-08-25T03:38:12;7.23;;;6.73;;
14688;SDS011;7432;48.728;9.154;2022-08-25T03:40:38;7.47;;;6.87;;
14688;SDS011;7432;48.728;9.154;2022-08-25T03:43:04;7.70;;;7.10;;
14688;SDS011;7432;48.728;9.154;2022-08-25T03:45:31;7.77;;;7.07;;
14688;SDS011;7432;48.728;9.154;2022-08-25T03:47:57;7.20;;;6.70;;
14688;SDS011;7432;48.728;9.154;2022-08-25T03:50:24;7.70;;;7.10;;
14688;SDS011;7432;48.728;9.154;2022-08-25T03:52:51;6.83;;;6.33;;
14688;SDS011;7432;48.728;9.154;2022-08-25T03:55:21;7.90;;;7.40;;
14688;SDS011;7432;48.728;9.154;2022-08-25T03:57:48;7.90;;;7.30;;
14688;SDS011;7432;48.728;9.154;2022-08-25T04:00:15;7.60;;;6.90;;
14688;SDS011;7432;48.728;9.154;2022-08-25T04:02:42;7.47;;;6.97;;
14688;SDS011;7432;48.728;9.154;2022-08-25T04:05:09;7.60;;;7.10;;
14688;SDS011;7432;48.728;9.154;2022-08-25T04:07:36;7.70;;;7.17;;
14688;SDS011;7432;48.728;9.154;2022-08-25T04:10:03;8.57;;;7.97;;
14688;SDS011;7432;48.728;9.154;2022-08-25T04:12:31;9.33;;;8.60;;
14688;SDS011;7432;48.728;9.154;2022-08-25T04:14:58;9.17;;;8.47;;
14688;SDS011;7432;48.728;9.154;2022-08-25T04:17:25;9.63;;;8.83;;
14688;SDS011;7432;48.728;9.154;2022-08-25T04:19:51;9.40;;;8.60;;
14688;SDS011;7432;48.728;9.154;2022-08-25T04:22:18;9.67;;;8.87;;
14688;SDS011;7432;48.728;9.154;2022-08-25T04:24:44;10.07;;;9.07;;
14688;SDS011;7432;48.728;9.154;2022-08-25T04:27:11;10.10;;;9.13;;
14688;SDS011;7432;48.728;9.154;2022-08-25T04:29:38;9.90;;;9.00;;
14688;SDS011;7432;48.728;9.154;2022-08-25T04:32:05;9.40;;;8.60;;
14688;SDS011;7432;48.728;9.154;2022-08-25T04:34:32;9.93;;;9.13;;
14688;SDS011;7432;48.728;9.154;2022-08-25T04:36:59;10.70;;;9.60;;
14688;SDS011;7432;48.728;9.154;2022-08-25T04:39:27;9.53;;;8.63;;
14688;SDS011;7432;48.728;9.154;2022-08-25T04:41:53;9.83;;;9.03;;
14688;SDS011;7432;48.728;9.154;2022-08-25T04:44:20;9.83;;;9.00;;
14688;SDS011;7432;48.728;9.154;2022-08-25T04:46:47;10.33;;;9.30;;
14688;SDS011;7432;48.728;9.154;2022-08-25T04:49:14;10.03;;;9.23;;
14688;SDS011;7432;48.728;9.154;2022-08-25T04:51:41;9.47;;;8.67;;
14688;SDS011;7432;48.728;9.154;2022-08-25T04:54:08;9.83;;;8.90;;
14688;SDS011;7432;48.728;9.154;2022-08-25T04:56:37;9.10;;;8.30;;
14688;SDS011;7432;48.728;9.154;2022-08-25T04:59:06;9.60;;;8.87;;
14688;SDS011;7432;48.728;9.154;2022-08-25T05:01:34;10.07;;;9.13;;
14688;SDS011;7432;48.728;9.154;2022-08-25T05:04:04;9.77;;;8.97;;
14688;SDS011;7432;48.728;9.154;2022-08-25T05:06:31;9.53;;;8.83;;
14688;SDS011;7432;48.728;9.154;2022-08-25T05:08:58;8.23;;;7.43;;
14688;SDS011;7432;48.728;9.154;2022-08-25T05:11:26;10.47;;;9.67;;
14688;SDS011;7432;48.728;9.154;2022-08-25T05:13:53;10.30;;;9.37;;
14688;SDS011;7432;48.728;9.154;2022-08-25T05:16:22;10.03;;;9.03;;
14688;SDS011;7432;48.728;9.154;2022-08-25T05:18:50;10.00;;;9.20;;
14688;SDS011;7432;48.728;9.154;2022-08-25T05:21:22;10.40;;;9.40;;
14688;SDS011;7432;48.728;9.154;2022-08-25T05:23:53;9.83;;;9.03;;
14688;SDS011;7432;48.728;9.154;2022-08-25T05:26:21;9.80;;;8.90;;
14688;SDS011;7432;48.728;9.154;2022-08-25T05:28:49;9.57;;;8.73;;
14688;SDS011;7432;48.728;9.154;2022-08-25T05:31:17;8.93;;;8.23;;
14688;SDS011;7432;48.728;9.154;2022-08-25T05:33:44;8.97;;;8.17;;
14688;SDS011;7432;48.728;9.154;2022-08-25T05:36:11;12.03;;;8.40;;
14688;SDS011;7432;48.728;9.154;2022-08-25T05:38:40;9.40;;;8.60;;
14688;SDS011;7432;48.728;9.154;2022-08-25T05:41:07;8.63;;;7.93;;
14688;SDS011;7432;48.728;9.154;2022-08-25T05:43:35;9.20;;;8.50;;
14688;SDS011;7432;48.728;9.154;2022-08-25T05:46:02;9.83;;;9.03;;
14688;SDS011;7432;48.728;9.154;2022-08-25T05:48:29;9.13;;;8.33;;
14688;SDS011;7432;48.728;9.154;2022-08-25T05:50:56;9.20;;;8.40;;
14688;SDS011;7432;48.728;9.154;2022-08-25T05:53:24;8.57;;;7.87;;
14688;SDS011;7432;48.728;9.154;2022-08-25T05:55:53;8.77;;;7.90;;
14688;SDS011;7432;48.728;9.154;2022-08-25T05:58:21;8.70;;;8.00;;
14688;SDS011;7432;48.728;9.154;2022-08-25T06:00:48;8.33;;;7.50;;
14688;SDS011;7432;48.728;9.154;2022-08-25T06:03:15;10.77;;;9.67;;
14688;SDS011;7432;48.728;9.154;2022-08-25T06:05:41;9.10;;;8.23;;
14688;SDS011;7432;48.728;9.154;2022-08-25T06:08:07;10.13;;;9.15;;
14688;SDS011;7432;48.728;9.154;2022-08-25T06:10:34;9.43;;;8.63;;
14688;SDS011;7432;48.728;9.154;2022-08-25T06:13:02;10.20;;;9.33;;
14688;SDS011;7432;48.728;9.154;2022-08-25T06:15:29;10.15;;;8.98;;
14688;SDS011;7432;48.728;9.154;2022-08-25T06:17:57;10.60;;;9.63;;
14688;SDS011;7432;48.728;9.154;2022-08-25T06:20:26;10.27;;;9.35;;
14688;SDS011;7432;48.728;9.154;2022-08-25T06:22:54;10.60;;;9.70;;
14688;SDS011;7432;48.728;9.154;2022-08-25T06:25:22;9.68;;;8.98;;
14688;SDS011;7432;48.728;9.154;2022-08-25T06:27:50;10.20;;;9.50;;
14688;SDS011;7432;48.728;9.154;2022-08-25T06:30:19;10.43;;;9.65;;
14688;SDS011;7432;48.728;9.154;2022-08-25T06:32:47;10.95;;;10.15;;
14688;SDS011;7432;48.728;9.154;2022-08-25T06:35:15;10.73;;;9.77;;
14688;SDS011;7432;48.728;9.154;2022-08-25T06:37:43;10.02;;;9.23;;
14688;SDS011;7432;48.728;9.154;2022-08-25T06:40:10;9.55;;;8.85;;
14688;SDS011;7432;48.728;9.154;2022-08-25T06:42:38;10.40;;;9.60;;
14688;SDS011;7432;48.728;9.154;2022-08-25T06:45:05;9.27;;;8.45;;
14688;SDS011;7432;48.728;9.154;2022-08-25T06:47:36;9.38;;;8.57;;
14688;SDS011;7432;48.728;9.154;2022-08-25T06:50:03;9.90;;;8.98;;
14688;SDS011;7432;48.728;9.154;2022-08-25T06:52:30;9.50;;;8.80;;
14688;SDS011;7432;48.728;9.154;2022-08-25T06:54:56;9.27;;;8.68;;
14688;SDS011;7432;48.728;9.154;2022-08-25T06:57:23;9.60;;;8.90;;
14688;SDS011;7432;48.728;9.154;2022-08-25T06:59:49;9.85;;;9.15;;
14688;SDS011;7432;48.728;9.154;2022-08-25T07:02:16;9.40;;;8.70;;
14688;SDS011;7432;48.728;9.154;2022-08-25T07:04:44;12.93;;;9.88;;
14688;SDS011;7432;48.728;9.154;2022-08-25T07:07:10;10.93;;;9.93;;
14688;SDS011;7432;48.728;9.154;2022-08-25T07:09:37;10.48;;;9.63;;
14688;SDS011;7432;48.728;9.154;2022-08-25T07:12:03;9.75;;;8.95;;
14688;SDS011;7432;48.728;9.154;2022-08-25T07:14:30;10.50;;;9.70;;
14688;SDS011;7432;48.728;9.154;2022-08-25T07:16:57;9.77;;;9.15;;
14688;SDS011;7432;48.728;9.154;2022-08-25T07:19:23;10.07;;;9.20;;
14688;SDS011;7432;48.728;9.154;2022-08-25T07:21:51;10.65;;;9.90;;
14688;SDS011;7432;48.728;9.154;2022-08-25T07:24:18;9.75;;;9.10;;
14688;SDS011;7432;48.728;9.154;2022-08-25T07:26:46;9.80;;;9.10;;
14688;SDS011;7432;48.728;9.154;2022-08-25T07:29:13;10.10;;;9.50;;
14688;SDS011;7432;48.728;9.154;2022-08-25T07:31:41;9.88;;;9.18;;
14688;SDS011;7432;48.728;9.154;2022-08-25T07:34:08;10.35;;;9.68;;
14688;SDS011;7432;48.728;9.154;2022-08-25T07:36:54;10.23;;;9.63;;
14688;SDS011;7432;48.728;9.154;2022-08-25T07:39:22;10.15;;;9.32;;
14688;SDS011;7432;48.728;9.154;2022-08-25T07:41:49;10.05;;;9.27;;
14688;SDS011;7432;48.728;9.154;2022-08-25T07:44:16;11.23;;;10.20;;
14688;SDS011;7432;48.728;9.154;2022-08-25T07:46:44;10.35;;;9.65;;
14688;SDS011;7432;48.728;9.154;2022-08-25T07:49:10;10.20;;;9.50;;
14688;SDS011;7432;48.728;9.154;2022-08-25T07:51:37;10.68;;;9.73;;
14688;SDS011;7432;48.728;9.154;2022-08-25T07:54:05;10.68;;;9.77;;
14688;SDS011;7432;48.728;9.154;2022-08-25T07:56:31;11.60;;;10.70;;
14688;SDS011;7432;48.728;9.154;2022-08-25T07:58:58;10.90;;;10.10;;
14688;SDS011;7432;48.728;9.154;2022-08-25T08:01:25;11.07;;;10.30;;
14688;SDS011;7432;48.728;9.154;2022-08-25T08:03:51;11.30;;;10.45;;
14688;SDS011;7432;48.728;9.154;2022-08-25T08:06:18;10.95;;;10.02;;
14688;SDS011;7432;48.728;9.154;2022-08-25T08:08:47;11.13;;;10.32;;
14688;SDS011;7432;48.728;9.154;2022-08-25T08:11:16;10.60;;;9.70;;
14688;SDS011;7432;48.728;9.154;2022-08-25T08:13:44;10.20;;;9.40;;
14688;SDS011;7432;48.728;9.154;2022-08-25T08:16:12;9.75;;;9.15;;
14688;SDS011;7432;48.728;9.154;2022-08-25T08:18:42;9.95;;;9.35;;
14688;SDS011;7432;48.728;9.154;2022-08-25T08:21:10;10.70;;;10.00;;
14688;SDS011;7432;48.728;9.154;2022-08-25T08:23:36;10.80;;;10.10;;
14688;SDS011;7432;48.728;9.154;2022-08-25T08:26:03;9.48;;;8.77;;
14688;SDS011;7432;48.728;9.154;2022-08-25T08:28:31;10.07;;;9.38;;
14688;SDS011;7432;48.728;9.154;2022-08-25T08:30:58;8.48;;;7.82;;
14688;SDS011;7432;48.728;9.154;2022-08-25T08:33:24;9.07;;;8.57;;
14688;SDS011;7432;48.728;9.154;2022-08-25T08:35:56;9.35;;;8.75;;
14688;SDS011;7432;48.728;9.154;2022-08-25T08:38:23;9.40;;;8.70;;
14688;SDS011;7432;48.728;9.154;2022-08-25T08:40:53;9.20;;;8.40;;
14688;SDS011;7432;48.728;9.154;2022-08-25T08:43:46;9.20;;;8.60;;
14688;SDS011;7432;48.728;9.154;2022-08-25T08:46:17;9.60;;;8.90;;
14688;SDS011;7432;48.728;9.154;2022-08-25T08:48:51;8.90;;;8.13;;
14688;SDS011;7432;48.728;9.154;2022-08-25T08:51:26;9.30;;;8.70;;
14688;SDS011;7432;48.728;9.154;2022-08-25T08:53:58;10.00;;;9.40;;
14688;SDS011;7432;48.728;9.154;2022-08-25T08:56:32;9.95;;;9.18;;
14688;SDS011;7432;48.728;9.154;2022-08-25T08:59:05;9.80;;;9.02;;
14688;SDS011;7432;48.728;9.154;2022-08-25T09:01:38;8.88;;;8.27;;
14688;SDS011;7432;48.728;9.154;2022-08-25T09:04:12;9.05;;;8.48;;
14688;SDS011;7432;48.728;9.154;2022-08-25T09:06:44;9.27;;;8.57;;
14688;SDS011;7432;48.728;9.154;2022-08-25T09:09:12;9.05;;;8.45;;
14688;SDS011;7432;48.728;9.154;2022-08-25T09:11:49;8.88;;;8.38;;
14688;SDS011;7432;48.728;9.154;2022-08-25T09:17:17;9.15;;;8.55;;
14688;SDS011;7432;48.728;9.154;2022-08-25T09:20:00;9.70;;;8.82;;
14688;SDS011;7432;48.728;9.154;2022-08-25T09:22:51;9.45;;;8.70;;
14688;SDS011;7432;48.728;9.154;2022-08-25T09:25:30;8.88;;;8.25;;
14688;SDS011;7432;48.728;9.154;2022-08-25T09:28:06;8.40;;;7.80;;
14688;SDS011;7432;48.728;9.154;2022-08-25T09:30:40;8.32;;;7.72;;
14688;SDS011;7432;48.728;9.154;2022-08-25T09:33:11;8.80;;;8.20;;
14688;SDS011;7432;48.728;9.154;2022-08-25T09:35:42;9.00;;;8.40;;
14688;SDS011;7432;48.728;9.154;2022-08-25T09:38:10;9.18;;;8.50;;
14688;SDS011;7432;48.728;9.154;2022-08-25T09:40:40;8.93;;;8.43;;
14688;SDS011;7432;48.728;9.154;2022-08-25T09:43:17;9.45;;;8.77;;
14688;SDS011;7432;48.728;9.154;2022-08-25T09:45:47;8.23;;;7.72;;
14688;SDS011;7432;48.728;9.154;2022-08-25T09:48:21;8.40;;;7.82;;
14688;SDS011;7432;48.728;9.154;2022-08-25T09:50:50;8.00;;;7.50;;
14688;SDS011;7432;48.728;9.154;2022-08-25T09:53:19;8.30;;;7.70;;
14688;SDS011;7432;48.728;9.154;2022-08-25T09:55:51;9.55;;;8.82;;
14688;SDS011;7432;48.728;9.154;2022-08-25T09:58:22;8.77;;;8.10;;
14688;SDS011;7432;48.728;9.154;2022-08-25T10:01:01;8.48;;;7.88;;
14688;SDS011;7432;48.728;9.154;2022-08-25T10:03:37;8.95;;;8.35;;
14688;SDS011;7432;48.728;9.154;2022-08-25T10:06:18;8.15;;;7.70;;
14688;SDS011;7432;48.728;9.154;2022-08-25T10:08:50;8.35;;;7.85;;
14688;SDS011;7432;48.728;9.154;2022-08-25T10:11:28;7.97;;;7.57;;
14688;SDS011;7432;48.728;9.154;2022-08-25T10:13:59;8.35;;;7.72;;
14688;SDS011;7432;48.728;9.154;2022-08-25T10:16:29;16.60;;;7.85;;
14688;SDS011;7432;48.728;9.154;2022-08-25T10:19:01;8.23;;;7.72;;
14688;SDS011;7432;48.728;9.154;2022-08-25T10:21:30;8.05;;;7.55;;
14688;SDS011;7432;48.728;9.154;2022-08-25T10:23:57;8.52;;;7.93;;
14688;SDS011;7432;48.728;9.154;2022-08-25T10:26:27;9.00;;;8.40;;
14688;SDS011;7432;48.728;9.154;2022-08-25T10:29:02;8.70;;;8.20;;
14688;SDS011;7432;48.728;9.154;2022-08-25T10:31:39;9.23;;;8.65;;
14688;SDS011;7432;48.728;9.154;2022-08-25T10:34:19;8.43;;;7.90;;
14688;SDS011;7432;48.728;9.154;2022-08-25T10:36:55;8.68;;;8.00;;
14688;SDS011;7432;48.728;9.154;2022-08-25T10:39:35;8.50;;;8.00;;
14688;SDS011;7432;48.728;9.154;2022-08-25T10:42:08;9.25;;;8.65;;
14688;SDS011;7432;48.728;9.154;2022-08-25T10:44:48;8.85;;;8.35;;
14688;SDS011;7432;48.728;9.154;2022-08-25T10:47:43;9.18;;;8.60;;
14688;SDS011;7432;48.728;9.154;2022-08-25T10:50:25;7.93;;;7.53;;
14688;SDS011;7432;48.728;9.154;2022-08-25T10:53:00;8.80;;;8.20;;
14688;SDS011;7432;48.728;9.154;2022-08-25T10:55:40;9.30;;;8.65;;
14688;SDS011;7432;48.728;9.154;2022-08-25T10:58:15;8.80;;;8.30;;
14688;SDS011;7432;48.728;9.154;2022-08-25T11:00:52;8.65;;;8.05;;
14688;SDS011;7432;48.728;9.154;2022-08-25T11:03:29;7.50;;;7.10;;
14688;SDS011;7432;48.728;9.154;2022-08-25T11:06:09;8.90;;;8.20;;
14688;SDS011;7432;48.728;9.154;2022-08-25T11:08:44;8.20;;;7.70;;
14688;SDS011;7432;48.728;9.154;2022-08-25T11:11:17;7.90;;;7.40;;
14688;SDS011;7432;48.728;9.154;2022-08-25T11:13:50;7.90;;;7.40;;
14688;SDS011;7432;48.728;9.154;2022-08-25T11:16:27;8.40;;;7.70;;
14688;SDS011;7432;48.728;9.154;2022-08-25T11:19:04;8.23;;;7.63;;
14688;SDS011;7432;48.728;9.154;2022-08-25T11:21:39;8.65;;;8.00;;
14688;SDS011;7432;48.728;9.154;2022-08-25T11:24:20;8.90;;;8.30;;
14688;SDS011;7432;48.728;9.154;2022-08-25T11:26:57;9.73;;;8.85;;
14688;SDS011;7432;48.728;9.154;2022-08-25T11:29:27;9.05;;;8.45;;
14688;SDS011;7432;48.728;9.154;2022-08-25T11:31:59;8.60;;;8.10;;
14688;SDS011;7432;48.728;9.154;2022-08-25T11:34:28;7.65;;;7.07;;
14688;SDS011;7432;48.728;9.154;2022-08-25T11:36:58;9.60;;;9.10;;
14688;SDS011;7432;48.728;9.154;2022-08-25T11:39:38;9.88;;;9.27;;
14688;SDS011;7432;48.728;9.154;2022-08-25T11:42:23;9.40;;;8.85;;
14688;SDS011;7432;48.728;9.154;2022-08-25T11:45:01;9.55;;;8.80;;
14688;SDS011;7432;48.728;9.154;2022-08-25T11:47:44;8.55;;;8.05;;
14688;SDS011;7432;48.728;9.154;2022-08-25T11:50:27;9.45;;;8.70;;
14688;SDS011;7432;48.728;9.154;2022-08-25T11:52:56;9.60;;;8.90;;
14688;SDS011;7432;48.728;9.154;2022-08-25T11:55:30;9.13;;;8.52;;
14688;SDS011;7432;48.728;9.154;2022-08-25T11:58:20;9.30;;;8.70;;
14688;SDS011;7432;48.728;9.154;2022-08-25T12:00:55;9.10;;;8.50;;
14688;SDS011;7432;48.728;9.154;2022-08-25T12:06:22;9.82;;;9.13;;
14688;SDS011;7432;48.728;9.154;2022-08-25T12:08:52;8.70;;;8.00;;
14688;SDS011;7432;48.728;9.154;2022-08-25T12:14:46;8.95;;;8.40;;
14688;SDS011;7432;48.728;9.154;2022-08-25T12:17:20;8.60;;;8.10;;
14688;SDS011;7432;48.728;9.154;2022-08-25T12:19:51;9.23;;;8.57;;
14688;SDS011;7432;48.728;9.154;2022-08-25T12:25:29;9.30;;;8.60;;
14688;SDS011;7432;48.728;9.154;2022-08-25T12:28:04;9.32;;;8.73;;
14688;SDS011;7432;48.728;9.154;2022-08-25T12:30:41;9.40;;;8.80;;
14688;SDS011;7432;48.728;9.154;2022-08-25T12:33:15;9.80;;;9.10;;
14688;SDS011;7432;48.728;9.154;2022-08-25T12:35:53;9.27;;;8.60;;
14688;SDS011;7432;48.728;9.154;2022-08-25T12:38:26;9.15;;;8.55;;
14688;SDS011;7432;48.728;9.154;2022-08-25T12:40:57;8.68;;;8.18;;
14688;SDS011;7432;48.728;9.154;2022-08-25T12:43:28;9.23;;;8.73;;
14688;SDS011;7432;48.728;9.154;2022-08-25T12:48:59;9.10;;;8.40;;
14688;SDS011;7432;48.728;9.154;2022-08-25T12:51:39;9.18;;;8.48;;
14688;SDS011;7432;48.728;9.154;2022-08-25T12:54:15;8.52;;;8.02;;
14688;SDS011;7432;48.728;9.154;2022-08-25T12:56:46;9.07;;;8.25;;
14688;SDS011;7432;48.728;9.154;2022-08-25T12:59:17;8.80;;;8.05;;
14688;SDS011;7432;48.728;9.154;2022-08-25T13:01:58;9.45;;;8.85;;
14688;SDS011;7432;48.728;9.154;2022-08-25T13:10:33;8.77;;;7.95;;
14688;SDS011;7432;48.728;9.154;2022-08-25T13:13:09;8.73;;;8.23;;
14688;SDS011;7432;48.728;9.154;2022-08-25T13:15:43;7.60;;;7.18;;
14688;SDS011;7432;48.728;9.154;2022-08-25T13:18:16;8.52;;;7.88;;
14688;SDS011;7432;48.728;9.154;2022-08-25T13:20:46;9.13;;;8.55;;
14688;SDS011;7432;48.728;9.154;2022-08-25T13:23:15;8.57;;;8.07;;
14688;SDS011;7432;48.728;9.154;2022-08-25T13:25:45;8.68;;;8.00;;
14688;SDS011;7432;48.728;9.154;2022-08-25T13:28:17;8.07;;;7.50;;
14688;SDS011;7432;48.728;9.154;2022-08-25T13:44:36;8.27;;;7.68;;
14688;SDS011;7432;48.728;9.154;2022-08-25T13:47:04;8.88;;;8.38;;
14688;SDS011;7432;48.728;9.154;2022-08-25T13:49:33;8.57;;;8.00;;
14688;SDS011;7432;48.728;9.154;2022-08-25T13:52:00;8.27;;;7.78;;
14688;SDS011;7432;48.728;9.154;2022-08-25T13:54:28;8.10;;;7.60;;
14688;SDS011;7432;48.728;9.154;2022-08-25T13:57:02;8.57;;;7.88;;
14688;SDS011;7432;48.728;9.154;2022-08-25T13:59:32;8.13;;;7.55;;
14688;SDS011;7432;48.728;9.154;2022-08-25T14:02:04;8.20;;;7.50;;
14688;SDS011;7432;48.728;9.154;2022-08-25T14:04:42;7.90;;;7.40;;
14688;SDS011;7432;48.728;9.154;2022-08-25T14:07:14;8.20;;;7.70;;
14688;SDS011;7432;48.728;9.154;2022-08-25T14:09:51;8.25;;;7.53;;
14688;SDS011;7432;48.728;9.154;2022-08-25T14:12:30;7.90;;;7.40;;
14688;SDS011;7432;48.728;9.154;2022-08-25T14:15:01;7.60;;;7.20;;
14688;SDS011;7432;48.728;9.154;2022-08-25T14:17:33;8.50;;;7.97;;
14688;SDS011;7432;48.728;9.154;2022-08-25T14:20:00;7.85;;;7.35;;
14688;SDS011;7432;48.728;9.154;2022-08-25T14:22:27;7.53;;;7.13;;
14688;SDS011;7432;48.728;9.154;2022-08-25T14:24:53;7.88;;;7.10;;
14688;SDS011;7432;48.728;9.154;2022-08-25T14:27:20;7.82;;;7.43;;
14688;SDS011;7432;48.728;9.154;2022-08-25T14:29:47;7.85;;;7.45;;
14688;SDS011;7432;48.728;9.154;2022-08-25T14:32:14;7.88;;;7.38;;
14688;SDS011;7432;48.728;9.154;2022-08-25T14:34:43;7.28;;;6.88;;
14688;SDS011;7432;48.728;9.154;2022-08-25T14:37:11;8.00;;;7.50;;
14688;SDS011;7432;48.728;9.154;2022-08-25T14:39:40;8.65;;;7.90;;
14688;SDS011;7432;48.728;9.154;2022-08-25T14:42:06;8.60;;;7.78;;
14688;SDS011;7432;48.728;9.154;2022-08-25T14:44:33;7.80;;;7.40;;
14688;SDS011;7432;48.728;9.154;2022-08-25T14:47:00;8.15;;;7.70;;
14688;SDS011;7432;48.728;9.154;2022-08-25T14:49:28;8.10;;;7.60;;
14688;SDS011;7432;48.728;9.154;2022-08-25T14:52:00;7.50;;;7.10;;
14688;SDS011;7432;48.728;9.154;2022-08-25T14:54:44;8.35;;;7.75;;
14688;SDS011;7432;48.728;9.154;2022-08-25T14:57:11;8.05;;;7.55;;
14688;SDS011;7432;48.728;9.154;2022-08-25T14:59:37;8.10;;;7.60;;
14688;SDS011;7432;48.728;9.154;2022-08-25T15:02:04;8.15;;;7.60;;
14688;SDS011;7432;48.728;9.154;2022-08-25T15:04:32;7.72;;;7.22;;
14688;SDS011;7432;48.728;9.154;2022-08-25T15:07:02;7.32;;;6.90;;
14688;SDS011;7432;48.728;9.154;2022-08-25T15:09:50;7.00;;;6.60;;
14688;SDS011;7432;48.728;9.154;2022-08-25T15:12:15;7.13;;;6.57;;
14688;SDS011;7432;48.728;9.154;2022-08-25T15:14:42;7.25;;;6.75;;
14688;SDS011;7432;48.728;9.154;2022-08-25T15:17:15;7.00;;;6.60;;
14688;SDS011;7432;48.728;9.154;2022-08-25T15:19:42;7.15;;;6.75;;
14688;SDS011;7432;48.728;9.154;2022-08-25T15:22:10;7.55;;;7.07;;
14688;SDS011;7432;48.728;9.154;2022-08-25T15:24:36;7.55;;;7.10;;
14688;SDS011;7432;48.728;9.154;2022-08-25T15:27:03;8.10;;;7.40;;
14688;SDS011;7432;48.728;9.154;2022-08-25T15:29:32;8.00;;;7.30;;
14688;SDS011;7432;48.728;9.154;2022-08-25T15:32:00;7.82;;;7.20;;
14688;SDS011;7432;48.728;9.154;2022-08-25T15:34:28;7.32;;;6.88;;
14688;SDS011;7432;48.728;9.154;2022-08-25T15:36:56;7.50;;;7.10;;
14688;SDS011;7432;48.728;9.154;2022-08-25T15:39:24;7.25;;;6.75;;
14688;SDS011;7432;48.728;9.154;2022-08-25T15:41:51;6.70;;;6.30;;
14688;SDS011;7432;48.728;9.154;2022-08-25T15:44:18;7.22;;;6.75;;
14688;SDS011;7432;48.728;9.154;2022-08-25T15:46:45;7.50;;;7.00;;
14688;SDS011;7432;48.728;9.154;2022-08-25T15:49:11;6.82;;;6.30;;